Brooklyn, Minnesota
Current Conditions -  °F | °C
As of 8:53 PM on Friday 19 Dec 2014 (Local Time) from KHIB Reporting Station
Haze Haze  
Wind Chill: 17°   Ceiling: 400
Heat Index: 25°   Visibility: 5mi
Dew Point: 21°   Wind: 7mph
Humidity: 85%   Direction: 150°SSE
Pressure: 30.11"   Gusts: NA
Location:  47.4158°N, 93.0053°W
Report Text: KHIB 200253Z AUTO 15006KT 5SM BR OVC004 M04/M06 A3011 RMK AO2 SNE0157 SLP223 P0000 60000 I3000 T10391061 58008
Loading
Personal Weather Stations






























Interactive Weather Map New forecast layout! Learn more

10-Day Weather Forecast

Advertisements
Track Severe Weather on mobile